Time;durP1;ratioP1;P1;durP2;ratioP2;P2;SDS_P1;SDS_P2;PMS_P1;PMS_P2;Temp;Humidity;BMP_temperature;BMP_pressure;BME280_temperature;BME280_humidity;BME280_pressure;Samples;Min_cycle;Max_cycle;Signal;HPM_P1;HPM_P2
2023/04/15 00:00:57;;;;;;;3.80;0.80;;;;;;;;;;5090950;27;86890;-60
2023/04/15 00:03:25;;;;;;;2.90;1.30;;;;;;;;;;5115753;27;86636;-60
2023/04/15 00:05:54;;;;;;;0.70;0.70;;;;;;;;;;5110771;27;87878;-60
2023/04/15 00:08:22;;;;;;;2.60;1.43;;;;;;;;;;5099378;27;88921;-60
2023/04/15 00:10:52;;;;;;;1.23;1.13;;;;;;;;;;5101286;27;88028;-60
2023/04/15 00:13:20;;;;;;;0.97;0.87;;;;;;;;;;5116423;27;87027;-60
2023/04/15 00:15:48;;;;;;;0.80;0.80;;;;;;;;;;5105693;27;89170;-60
2023/04/15 00:18:17;;;;;;;8.93;1.37;;;;;;;;;;5109132;27;88834;-60
2023/04/15 00:20:45;;;;;;;3.30;0.73;;;;;;;;;;5109671;27;86982;-60
2023/04/15 00:23:13;;;;;;;1.60;0.70;;;;;;;;;;5088676;27;88724;-60
2023/04/15 00:25:41;;;;;;;1.57;1.00;;;;;;;;;;5084301;27;89135;-60
2023/04/15 00:28:11;;;;;;;2.00;1.17;;;;;;;;;;5111677;27;88663;-60
2023/04/15 00:30:40;;;;;;;1.33;0.80;;;;;;;;;;5116035;27;86975;-60
2023/04/15 00:33:08;;;;;;;1.27;1.17;;;;;;;;;;5110452;27;87089;-60
2023/04/15 00:35:37;;;;;;;1.53;0.90;;;;;;;;;;5104416;27;90167;-60
2023/04/15 00:38:06;;;;;;;3.97;1.37;;;;;;;;;;5111829;27;90227;-60
2023/04/15 00:40:35;;;;;;;2.10;0.97;;;;;;;;;;5122748;27;87005;-60
2023/04/15 00:43:04;;;;;;;2.30;1.13;;;;;;;;;;5118709;27;86988;-60
2023/04/15 00:45:34;;;;;;;0.90;0.90;;;;;;;;;;5109278;27;88995;-60
2023/04/15 00:48:02;;;;;;;4.43;1.40;;;;;;;;;;5113484;27;89023;-60
2023/04/15 00:50:30;;;;;;;2.63;1.03;;;;;;;;;;5114246;27;86971;-60
2023/04/15 00:52:58;;;;;;;1.37;1.10;;;;;;;;;;5118816;27;86738;-60
2023/04/15 00:55:27;;;;;;;1.23;0.80;;;;;;;;;;5104054;27;89054;-60
2023/04/15 00:57:55;;;;;;;0.70;0.70;;;;;;;;;;5114881;27;88644;-60
2023/04/15 01:00:23;;;;;;;2.63;1.03;;;;;;;;;;5122272;27;87941;-60
2023/04/15 01:02:53;;;;;;;0.73;0.73;;;;;;;;;;5118402;27;88680;-60
2023/04/15 01:05:22;;;;;;;2.43;1.20;;;;;;;;;;5102899;27;89348;-61
2023/04/15 01:07:50;;;;;;;0.50;0.50;;;;;;;;;;5099619;27;88906;-60
2023/04/15 01:10:19;;;;;;;4.87;1.03;;;;;;;;;;5105944;27;87069;-60
2023/04/15 01:12:47;;;;;;;1.70;0.90;;;20.40;36.20;;;;;;5114390;27;87076;-60
2023/04/15 01:15:15;;;;;;;1.13;0.83;;;20.50;36.90;;;;;;5109369;27;89177;-60
2023/04/15 01:17:43;;;;;;;1.23;1.10;;;20.40;37.00;;;;;;5106476;27;88838;-62
2023/04/15 01:20:12;;;;;;;0.80;0.80;;;20.30;37.10;;;;;;5112558;27;87174;-60
2023/04/15 01:22:40;;;;;;;3.17;0.87;;;20.30;37.80;;;;;;5106655;27;87032;-60
2023/04/15 01:25:11;;;;;;;1.17;0.80;;;20.30;37.20;;;;;;5094220;27;88868;-59
2023/04/15 01:27:41;;;;;;;0.83;0.83;;;20.30;37.20;;;;;;5108774;27;89794;-59
2023/04/15 01:30:10;;;;;;;3.10;0.77;;;20.20;37.10;;;;;;5105581;27;87079;-60
2023/04/15 01:32:38;;;;;;;4.80;1.13;;;20.20;37.10;;;;;;5109483;27;86972;-60
2023/04/15 01:35:07;;;;;;;0.97;0.80;;;20.20;37.10;;;;;;5105142;27;89237;-60
2023/04/15 01:37:35;;;;;;;2.53;1.17;;;20.20;37.30;;;;;;5106060;27;88529;-60
2023/04/15 01:40:04;;;;;;;0.80;0.80;;;20.10;37.20;;;;;;5087574;27;87182;-60
2023/04/15 01:42:32;;;;;;;3.23;1.20;;;20.10;37.10;;;;;;5105229;27;86304;-60
2023/04/15 01:45:01;;;;;;;0.90;0.90;;;20.10;37.20;;;;;;5118202;27;88901;-60
2023/04/15 01:47:29;;;;;;;0.80;0.80;;;20.10;37.90;;;;;;5123069;27;88314;-60
2023/04/15 01:49:57;;;;;;;5.07;1.00;;;20.10;37.20;;;;;;5092485;27;88975;-60
2023/04/15 01:52:25;;;;;;;1.50;1.10;;;20.10;37.20;;;;;;5099343;27;86948;-60
2023/04/15 01:54:53;;;;;;;2.07;1.00;;;20.10;37.80;;;;;;5116255;27;89166;-60
2023/04/15 01:57:21;;;;;;;0.70;0.70;;;20.10;37.20;;;;;;5104557;27;88912;-60
2023/04/15 01:59:49;;;;;;;1.30;0.90;;;20.10;37.90;;;;;;5089410;27;87137;-60
2023/04/15 02:02:19;;;;;;;2.90;1.10;;;20.10;37.90;;;;;;5083802;27;87088;-60
2023/04/15 02:04:47;;;;;;;1.90;0.70;;;20.10;37.20;;;;;;5083397;27;89070;-60
2023/04/15 02:07:15;;;;;;;0.97;0.97;;;20.10;37.20;;;;;;5089417;27;88885;-60
2023/04/15 02:09:44;;;;;;;0.90;0.90;;;20.10;37.20;;;;;;5103648;27;86961;-60
2023/04/15 02:12:12;;;;;;;3.17;1.50;;;20.10;37.90;;;;;;5104187;27;87013;-60
2023/04/15 02:14:40;;;;;;;0.73;0.73;;;20.10;37.30;;;;;;5102708;27;90183;-60
2023/04/15 02:17:08;;;;;;;3.57;1.43;;;20.10;37.30;;;;;;5101514;27;90057;-60
2023/04/15 02:19:38;;;;;;;3.03;1.23;;;20.10;37.40;;;;;;5104789;27;86968;-60
2023/04/15 02:22:08;;;;;;;1.73;1.47;;;20.10;37.40;;;;;;5105272;27;87038;-60
2023/04/15 02:24:36;;;;;;;0.90;0.87;;;20.00;37.40;;;;;;5103034;27;88022;-60
2023/04/15 02:27:04;;;;;;;2.33;1.33;;;20.00;37.40;;;;;;5103885;27;88883;-60
2023/04/15 02:29:32;;;;;;;1.33;1.00;;;20.00;37.50;;;;;;5107990;27;87048;-60
2023/04/15 02:32:00;;;;;;;1.10;1.00;;;20.00;37.50;;;;;;5126241;27;86353;-60
2023/04/15 02:34:28;;;;;;;1.23;1.13;;;19.90;37.40;;;;;;5121369;27;89029;-60
2023/04/15 02:36:58;;;;;;;1.60;1.37;;;20.00;37.50;;;;;;5116550;27;87310;-60
2023/04/15 02:39:26;;;;;;;1.20;1.00;;;19.90;37.50;;;;;;5106464;27;87924;-60
2023/04/15 02:41:54;;;;;;;1.43;1.33;;;19.90;37.50;;;;;;5099160;27;87146;-60
2023/04/15 02:44:23;;;;;;;1.87;0.97;;;20.00;37.50;;;;;;5125092;27;89333;-61
2023/04/15 02:46:53;;;;;;;2.03;1.00;;;19.90;37.50;;;;;;5113071;27;89464;-60
2023/04/15 02:49:21;;;;;;;2.10;1.23;;;19.90;37.50;;;;;;5093623;27;87022;-60
2023/04/15 02:51:50;;;;;;;2.03;0.90;;;19.90;37.50;;;;;;5096270;27;87088;-60
2023/04/15 02:54:19;;;;;;;2.10;1.00;;;19.90;37.50;;;;;;5084183;27;88900;-60
2023/04/15 02:56:47;;;;;;;2.20;1.10;;;19.90;37.50;;;;;;5111567;27;87367;-60
2023/04/15 02:59:15;;;;;;;2.57;1.40;;;19.90;37.50;;;;;;5103399;27;87130;-62
2023/04/15 03:01:43;;;;;;;1.83;1.00;;;19.80;37.50;;;;;;5107583;27;87059;-60
2023/04/15 03:04:12;;;;;;;1.87;1.30;;;19.90;37.50;;;;;;5105475;27;90034;-60
2023/04/15 03:06:40;;;;;;;1.33;0.97;;;19.90;37.60;;;;;;5119966;27;89804;-60
2023/04/15 03:09:08;;;;;;;0.90;0.87;;;19.80;37.50;;;;;;5116107;27;88775;-60
2023/04/15 03:11:40;;;;;;;4.13;1.00;;;19.90;37.60;;;;;;5117083;27;87118;-60
2023/04/15 03:14:08;;;;;;;1.77;1.40;;;19.80;37.50;;;;;;5098835;27;89249;-60
2023/04/15 03:16:36;;;;;;;0.93;0.83;;;19.80;37.60;;;;;;5083360;27;87770;-60
2023/04/15 03:19:04;;;;;;;1.07;1.00;;;19.80;37.60;;;;;;5084322;27;86982;-60
2023/04/15 03:21:32;;;;;;;0.70;0.70;;;19.70;37.50;;;;;;5105240;27;86889;-60
2023/04/15 03:24:00;;;;;;;0.93;0.93;;;19.70;37.60;;;;;;5104978;27;89134;-60
2023/04/15 03:26:28;;;;;;;1.37;1.10;;;19.70;37.60;;;;;;5105370;27;89054;-60
2023/04/15 03:28:57;;;;;;;1.10;1.00;;;19.70;37.60;;;;;;5101138;27;87991;-60
2023/04/15 03:31:26;;;;;;;1.23;1.00;;;19.70;37.60;;;;;;5108682;27;88046;-60
2023/04/15 03:33:54;;;;;;;2.97;0.90;;;19.60;37.60;;;;;;5103872;27;89068;-60
2023/04/15 03:36:22;;;;;;;1.63;1.20;;;19.60;37.70;;;;;;5103011;27;89165;-60
2023/04/15 03:38:50;;;;;;;1.00;0.93;;;19.60;37.60;;;;;;5118285;27;87424;-60
2023/04/15 03:41:18;;;;;;;3.43;1.50;;;19.60;37.70;;;;;;5109094;27;87063;-60
2023/04/15 03:43:46;;;;;;;1.37;1.20;;;19.60;37.70;;;;;;5097007;27;88465;-60
2023/04/15 03:46:15;;;;;;;3.83;1.30;;;19.60;37.70;;;;;;5109951;27;87689;-60
2023/04/15 03:48:43;;;;;;;3.20;1.00;;;19.60;37.70;;;;;;5118107;27;87124;-60
2023/04/15 03:51:11;;;;;;;1.10;1.00;;;19.60;37.70;;;;;;5111760;27;87063;-60
2023/04/15 03:53:39;;;;;;;0.90;0.83;;;19.60;37.70;;;;;;5112701;27;90092;-60
2023/04/15 03:56:07;;;;;;;2.30;1.03;;;19.50;37.70;;;;;;5102659;27;89855;-60
2023/04/15 03:58:35;;;;;;;0.73;0.73;;;19.50;37.70;;;;;;5108990;27;87172;-60
2023/04/15 04:01:03;;;;;;;1.53;1.07;;;19.50;37.70;;;;;;5112828;27;86976;-60
2023/04/15 04:03:33;;;;;;;1.53;1.20;;;19.50;37.70;;;;;;5099671;27;88857;-60
2023/04/15 04:06:01;;;;;;;2.13;1.13;;;19.50;37.70;;;;;;5107594;27;88862;-60
2023/04/15 04:08:29;;;;;;;0.83;0.70;;;19.50;37.80;;;;;;5104217;27;87026;-61
2023/04/15 04:10:57;;;;;;;0.80;0.80;;;19.50;37.80;;;;;;5106626;27;86330;-60
2023/04/15 04:13:25;;;;;;;1.60;0.80;;;19.50;37.70;;;;;;5111947;27;89419;-60
2023/04/15 04:15:53;;;;;;;1.43;1.27;;;19.40;37.70;;;;;;5105783;27;88824;-60
2023/04/15 04:18:21;;;;;;;1.70;1.27;;;19.50;37.80;;;;;;5102957;27;87968;-60
2023/04/15 04:20:50;;;;;;;1.63;1.23;;;19.50;37.80;;;;;;5102267;27;87039;-60
2023/04/15 04:23:18;;;;;;;1.67;1.10;;;19.50;37.80;;;;;;5117617;27;89073;-60
2023/04/15 04:25:46;;;;;;;1.57;1.07;;;19.50;37.80;;;;;;5109295;27;89230;-61
2023/04/15 04:28:14;;;;;;;1.07;0.83;;;19.50;38.40;;;;;;5103654;27;86968;-60
2023/04/15 04:30:42;;;;;;;1.20;0.90;;;19.50;38.50;;;;;;5114899;27;86949;-60
2023/04/15 04:33:10;;;;;;;1.23;1.13;;;19.50;37.80;;;;;;5114924;27;88987;-60
2023/04/15 04:35:38;;;;;;;1.33;1.00;;;19.50;37.90;;;;;;5120053;27;88978;-60
2023/04/15 04:38:07;;;;;;;1.97;1.13;;;19.50;37.90;;;;;;5107955;27;87601;-60
2023/04/15 04:40:35;;;;;;;2.53;0.80;;;19.50;37.80;;;;;;5108206;27;87110;-60
2023/04/15 04:43:03;;;;;;;1.00;0.90;;;19.50;37.90;;;;;;5118929;27;90013;-60
2023/04/15 04:45:31;;;;;;;0.90;0.90;;;19.50;37.90;;;;;;5088230;27;89946;-60
2023/04/15 04:47:59;;;;;;;1.53;1.03;;;19.50;38.60;;;;;;5095621;27;87179;-60
2023/04/15 04:50:27;;;;;;;1.00;0.80;;;19.50;37.90;;;;;;5092440;27;87108;-60
2023/04/15 04:52:55;;;;;;;1.73;1.10;;;19.50;37.90;;;;;;5122803;27;89318;-60
2023/04/15 04:55:25;;;;;;;1.67;1.13;;;19.50;37.90;;;;;;5102549;27;88875;-60
2023/04/15 04:57:52;;;;;;;1.80;1.27;;;19.50;38.00;;;;;;5093936;27;88336;-60
2023/04/15 05:00:21;;;;;;;2.70;1.30;;;19.40;37.90;;;;;;5104194;27;86335;-60
2023/04/15 05:02:49;;;;;;;0.97;0.87;;;19.40;38.00;;;;;;5089142;27;89251;-60
2023/04/15 05:05:18;;;;;;;1.10;1.00;;;19.40;38.00;;;;;;5103672;27;88822;-60
2023/04/15 05:07:46;;;;;;;1.37;0.83;;;19.40;38.70;;;;;;5092730;27;88000;-60
2023/04/15 05:10:16;;;;;;;0.97;0.93;;;19.40;38.00;;;;;;5117344;27;86955;-60
2023/04/15 05:12:45;;;;;;;3.03;1.57;;;19.40;38.10;;;;;;5111554;27;88843;-60
2023/04/15 05:15:13;;;;;;;1.27;1.07;;;19.50;38.20;;;;;;5113408;27;88848;-60
2023/04/15 05:17:41;;;;;;;1.13;0.90;;;19.50;38.10;;;;;;5087541;27;87025;-60
2023/04/15 05:20:10;;;;;;;1.40;1.07;;;19.50;38.10;;;;;;5105512;27;87531;-60
2023/04/15 05:22:38;;;;;;;2.90;0.90;;;19.50;38.10;;;;;;5093817;27;89242;-60
2023/04/15 05:25:07;;;;;;;1.20;0.83;;;19.50;38.10;;;;;;5108530;27;88804;-60
2023/04/15 05:27:35;;;;;;;0.93;0.83;;;19.50;38.10;;;;;;5104640;27;86837;-61
2023/04/15 05:30:06;;;;;;;1.73;0.80;;;19.60;38.20;;;;;;5096082;27;86926;-60
2023/04/15 05:32:34;;;;;;;1.37;1.27;;;19.60;38.20;;;;;;5118304;27;90084;-60
2023/04/15 05:35:02;;;;;;;1.33;1.23;;;19.60;38.20;;;;;;5114557;27;89819;-60
2023/04/15 05:37:30;;;;;;;0.90;0.90;;;19.60;38.20;;;;;;5102179;27;86712;-60
2023/04/15 05:39:58;;;;;;;1.37;1.17;;;19.60;38.20;;;;;;5095436;27;87077;-60
2023/04/15 05:42:26;;;;;;;3.00;1.50;;;19.60;38.20;;;;;;5101311;27;87997;-60
2023/04/15 05:44:54;;;;;;;1.23;0.70;;;19.60;38.20;;;;;;5111657;27;88654;-60
2023/04/15 05:47:23;;;;;;;0.63;0.63;;;19.60;38.90;;;;;;5108549;27;87063;-60
2023/04/15 05:49:51;;;;;;;0.87;0.87;;;19.60;38.30;;;;;;5107102;27;86356;-60
2023/04/15 05:52:19;;;;;;;2.17;0.93;;;19.60;38.30;;;;;;5105411;27;88689;-60
2023/04/15 05:54:47;;;;;;;1.37;1.27;;;19.60;38.30;;;;;;5114113;27;88501;-60
2023/04/15 05:57:15;;;;;;;1.20;0.93;;;19.70;38.30;;;;;;5125084;27;87924;-60
2023/04/15 05:59:43;;;;;;;1.13;0.90;;;19.70;38.30;;;;;;5108147;27;87044;-60
2023/04/15 06:02:12;;;;;;;0.97;0.87;;;19.70;38.30;;;;;;5108124;27;89122;-61
2023/04/15 06:04:41;;;;;;;4.00;1.00;;;19.80;38.40;;;;;;5096920;27;88488;-60
2023/04/15 06:07:09;;;;;;;1.10;1.00;;;19.80;38.40;;;;;;5110572;27;87033;-60
2023/04/15 06:09:37;;;;;;;1.13;1.03;;;19.80;38.40;;;;;;5087105;27;86805;-60
2023/04/15 06:12:10;;;;;;;1.10;1.00;;;19.80;38.40;;;;;;5091428;27;88891;-61
2023/04/15 06:14:39;;;;;;;1.40;1.07;;;19.90;38.40;;;;;;5109421;27;87791;-61
2023/04/15 06:17:07;;;;;;;1.20;0.97;;;19.90;38.40;;;;;;5121358;27;87111;-61
2023/04/15 06:19:35;;;;;;;1.57;1.10;;;19.90;38.50;;;;;;5104413;27;87040;-62
2023/04/15 06:22:06;;;;;;;2.13;1.20;;;19.90;38.60;;;;;;5107808;27;92784;-63
2023/04/15 06:24:35;;;;;;;0.70;0.70;;;20.00;38.90;;;;;;5108838;27;88836;-63
2023/04/15 06:27:03;;;;;;;0.60;0.60;;;20.00;38.90;;;;;;5087410;27;87126;-63
2023/04/15 06:29:31;;;;;;;1.03;1.03;;;20.10;39.10;;;;;;5097929;27;87052;-64
2023/04/15 06:31:59;;;;;;;1.43;1.33;;;20.10;39.20;;;;;;5100878;27;89077;-64
2023/04/15 06:34:27;;;;;;;2.67;1.13;;;20.20;39.30;;;;;;5084304;27;88533;-64
2023/04/15 06:36:56;;;;;;;0.70;0.70;;;20.20;39.40;;;;;;5085097;27;87077;-64
2023/04/15 06:39:25;;;;;;;1.10;1.03;;;20.30;39.50;;;;;;5084324;27;86364;-65
2023/04/15 06:41:53;;;;;;;1.60;0.63;;;20.30;39.60;;;;;;5091864;27;89127;-62
2023/04/15 06:44:21;;;;;;;0.80;0.80;;;20.30;39.70;;;;;;5099542;27;89509;-61
2023/04/15 06:46:49;;;;;;;1.63;1.30;;;20.30;39.70;;;;;;5094765;27;87979;-64
2023/04/15 06:49:17;;;;;;;3.67;1.60;;;20.30;39.80;;;;;;5084139;27;86892;-62
2023/04/15 06:51:45;;;;;;;1.00;1.00;;;20.40;40.10;;;;;;5085099;27;88026;-62
2023/04/15 06:54:13;;;;;;;1.43;0.80;;;20.40;40.30;;;;;;5099693;27;88651;-61
2023/04/15 06:56:43;;;;;;;0.63;0.63;;;20.40;40.40;;;;;;5094645;27;88729;-62
2023/04/15 06:59:11;;;;;;;1.03;0.90;;;20.40;40.50;;;;;;5090511;27;86960;-62
2023/04/15 07:01:40;;;;;;;1.00;0.90;;;20.40;40.60;;;;;;5092011;27;87769;-60
2023/04/15 07:04:08;;;;;;;0.97;0.87;;;20.40;40.70;;;;;;5117309;27;88919;-62
2023/04/15 07:06:36;;;;;;;2.50;0.80;;;20.40;40.80;;;;;;5102800;27;87015;-60
2023/04/15 07:09:04;;;;;;;2.10;1.20;;;20.50;41.00;;;;;;5102993;27;87098;-61
2023/04/15 07:11:32;;;;;;;1.50;0.97;;;20.50;41.10;;;;;;5089223;27;90141;-64
2023/04/15 07:14:02;;;;;;;1.23;0.90;;;20.50;41.10;;;;;;5110951;27;89671;-62
2023/04/15 07:16:30;;;;;;;0.97;0.97;;;20.50;41.10;;;;;;5103396;27;87078;-61
2023/04/15 07:18:58;;;;;;;1.27;1.20;;;20.60;41.20;;;;;;5113880;27;88689;-62
2023/04/15 07:21:26;;;;;;;3.57;1.03;;;20.60;41.20;;;;;;5084912;27;89376;-61
2023/04/15 07:23:54;;;;;;;1.20;0.90;;;20.60;41.30;;;;;;5096239;27;91154;-62
2023/04/15 07:26:22;;;;;;;1.00;1.00;;;20.60;41.30;;;;;;5094232;27;86970;-61
2023/04/15 07:28:50;;;;;;;3.07;1.30;;;20.60;41.30;;;;;;5091443;27;86442;-62
2023/04/15 07:31:19;;;;;;;1.43;1.30;;;20.60;41.30;;;;;;5089197;27;89382;-61
2023/04/15 07:33:47;;;;;;;1.13;1.03;;;20.60;41.30;;;;;;5083489;27;89134;-62
2023/04/15 07:36:15;;;;;;;1.40;1.30;;;20.60;41.30;;;;;;5082582;27;88021;-60
2023/04/15 07:38:43;;;;;;;4.80;1.10;;;20.60;41.30;;;;;;5083083;27;87097;-61
2023/04/15 07:41:11;;;;;;;1.13;1.03;;;20.70;41.40;;;;;;5102561;27;89189;-61
2023/04/15 07:43:39;;;;;;;0.63;0.63;;;20.70;41.40;;;;;;5091894;27;88861;-61
2023/04/15 07:46:07;;;;;;;1.60;0.83;;;20.70;41.40;;;;;;5100481;27;87148;-60
2023/04/15 07:48:37;;;;;;;0.90;0.90;;;20.70;41.40;;;;;;5094419;27;86964;-63
2023/04/15 07:51:05;;;;;;;1.43;1.20;;;20.70;41.40;;;;;;5106641;27;89194;-61
2023/04/15 07:53:33;;;;;;;2.80;1.13;;;20.70;41.40;;;;;;5092435;27;88807;-59
2023/04/15 07:56:01;;;;;;;1.10;0.90;;;20.70;41.40;;;;;;5121990;27;86969;-61
2023/04/15 07:58:29;;;;;;;1.03;0.97;;;20.70;41.40;;;;;;5100929;27;88718;-61
2023/04/15 08:00:57;;;;;;;2.83;1.03;;;20.70;41.40;;;;;;5094750;27;90129;-63
2023/04/15 08:03:26;;;;;;;1.00;0.90;;;20.70;41.40;;;;;;5100076;27;89799;-63
2023/04/15 08:05:56;;;;;;;0.80;0.80;;;20.70;41.40;;;;;;5102667;27;88337;-63
2023/04/15 08:08:24;;;;;;;2.87;1.17;;;20.70;41.40;;;;;;5099757;27;87404;-62
2023/04/15 08:10:52;;;;;;;1.17;1.00;;;20.70;41.40;;;;;;5079736;27;89282;-63
2023/04/15 08:13:20;;;;;;;1.40;1.30;;;20.70;41.40;;;;;;5082605;27;88770;-62
2023/04/15 08:16:13;;;;;;;2.00;1.60;;;20.60;41.20;;;;;;5101062;27;87018;-62
2023/04/15 08:18:41;;;;;;;1.30;1.10;;;20.60;41.30;;;;;;5087740;27;86303;-63
2023/04/15 08:21:10;;;;;;;2.17;1.23;;;20.50;41.20;;;;;;5086906;27;89422;-62
2023/04/15 08:23:38;;;;;;;2.40;1.00;;;20.50;41.20;;;;;;5082961;27;88927;-62
2023/04/15 08:26:06;;;;;;;0.77;0.77;;;20.50;41.20;;;;;;5087433;27;89374;-62
2023/04/15 08:28:34;;;;;;;0.90;0.90;;;20.50;41.20;;;;;;5103817;27;87107;-62
2023/04/15 08:31:02;;;;;;;2.17;1.20;;;20.50;41.20;;;;;;5093613;27;88862;-60
2023/04/15 08:33:30;;;;;;;3.17;1.57;;;20.50;41.20;;;;;;5099198;27;88997;-60
2023/04/15 08:35:58;;;;;;;3.80;1.40;;;20.50;41.10;;;;;;5093661;27;87027;-62
2023/04/15 08:38:27;;;;;;;1.80;1.47;;;20.50;41.10;;;;;;5082486;27;86877;-60
2023/04/15 08:40:55;;;;;;;1.83;1.53;;;20.50;41.90;;;;;;5081716;27;89292;-63
2023/04/15 08:43:25;;;;;;;1.80;1.60;;;20.50;41.10;;;;;;5087961;27;88923;-60
2023/04/15 08:45:53;;;;;;;1.03;0.97;;;20.40;41.10;;;;;;5102503;27;86789;-60
2023/04/15 08:48:23;;;;;;;2.30;0.90;;;20.40;41.10;;;;;;5102932;27;87017;-63
2023/04/15 08:50:51;;;;;;;2.40;1.53;;;20.40;41.10;;;;;;5101800;27;89989;-61
2023/04/15 08:53:19;;;;;;;2.67;1.63;;;20.40;41.10;;;;;;5102800;27;89815;-61
2023/04/15 08:55:51;;;;;;;0.97;0.90;;;20.30;41.00;;;;;;5103555;27;86927;-62
2023/04/15 08:58:19;;;;;;;1.23;0.90;;;20.30;41.00;;;;;;5103958;27;87046;-62
2023/04/15 09:00:47;;;;;;;2.40;1.40;;;20.30;41.00;;;;;;5097161;27;89199;-60
2023/04/15 09:03:16;;;;;;;1.03;0.97;;;20.30;41.00;;;;;;5091481;27;88722;-61
2023/04/15 09:05:44;;;;;;;1.37;1.00;;;20.30;41.00;;;;;;5101920;27;87005;-63
2023/04/15 09:08:12;;;;;;;1.33;1.10;;;20.30;41.10;;;;;;5098968;27;86261;-61
2023/04/15 09:10:40;;;;;;;2.80;1.57;;;20.30;41.20;;;;;;5094334;27;89130;-61
2023/04/15 09:13:09;;;;;;;2.53;1.43;;;20.40;41.30;;;;;;5098655;27;88918;-61
2023/04/15 09:15:38;;;;;;;1.30;1.20;;;20.40;41.30;;;;;;5092180;27;88073;-62
2023/04/15 09:18:06;;;;;;;1.37;1.27;;;20.40;41.30;;;;;;5118929;27;87083;-62
2023/04/15 09:20:39;;;;;;;2.17;1.60;;;20.40;41.40;;;;;;5082449;27;88967;-62
2023/04/15 09:23:12;;;;;;;6.97;2.03;;;20.50;41.50;;;;;;5097603;27;88900;-62
2023/04/15 09:25:41;;;;;;;1.47;1.03;;;20.50;41.50;;;;;;5107066;27;87049;-61
2023/04/15 09:28:10;;;;;;;1.23;1.13;;;20.50;41.40;;;;;;5120581;27;86986;-62
2023/04/15 09:30:38;;;;;;;5.60;1.70;;;20.40;41.30;;;;;;5106787;27;88154;-62
2023/04/15 09:33:07;;;;;;;1.00;1.00;;;20.40;41.30;;;;;;5103841;27;88958;-62
2023/04/15 09:35:35;;;;;;;2.60;1.53;;;20.40;41.30;;;;;;5104862;27;87296;-62
2023/04/15 09:38:05;;;;;;;1.70;0.93;;;20.40;41.30;;;;;;5064710;27;87041;-62
2023/04/15 09:40:34;;;;;;;1.83;1.27;;;20.40;41.30;;;;;;5063847;27;90099;-62
2023/04/15 09:43:02;;;;;;;0.70;0.70;;;20.30;41.20;;;;;;5064794;27;89774;-62
2023/04/15 09:45:31;;;;;;;1.60;0.90;;;20.30;41.20;;;;;;5065057;27;86922;-61
2023/04/15 09:47:59;;;;;;;1.33;1.00;;;20.30;41.10;;;;;;5064921;27;88144;-62
2023/04/15 09:50:29;;;;;;;1.00;0.87;;;20.30;41.10;;;;;;5064793;27;89256;-62
2023/04/15 09:52:58;;;;;;;0.80;0.70;;;20.30;41.00;;;;;;5064652;27;88973;-61
2023/04/15 09:55:26;;;;;;;1.43;0.80;;;20.40;41.10;;;;;;5065395;27;86785;-61
2023/04/15 09:57:54;;;;;;;4.63;1.13;;;20.40;41.00;;;;;;5065082;27;86295;-62
2023/04/15 10:00:22;;;;;;;1.00;0.90;;;;;;;;;;5064364;27;88917;-62
2023/04/15 10:02:51;;;;;;;0.50;0.50;;;20.40;40.30;;;;;;5064025;27;89050;-61
2023/04/15 10:05:22;;;;;;;0.60;0.60;;;20.40;40.70;;;;;;5064384;27;87835;-61
2023/04/15 10:07:50;;;;;;;4.37;1.03;;;20.40;40.70;;;;;;5064614;27;87072;-61
2023/04/15 10:10:18;;;;;;;0.70;0.67;;;20.40;41.20;;;;;;5064667;27;87459;-61
2023/04/15 10:12:46;;;;;;;0.70;0.60;;;20.40;40.50;;;;;;5064595;27;88811;-62
2023/04/15 10:15:16;;;;;;;0.73;0.70;;;20.40;40.40;;;;;;5064312;27;86714;-62
2023/04/15 10:17:44;;;;;;;0.47;0.47;;;20.40;40.20;;;;;;5064186;27;87023;-61
2023/04/15 10:20:13;;;;;;;0.60;0.60;;;20.30;40.80;;;;;;5064402;27;89033;-61
2023/04/15 10:22:42;;;;;;;0.67;0.67;;;20.30;40.00;;;;;;5064958;27;88639;-62
2023/04/15 10:25:10;;;;;;;1.30;0.93;;;20.20;39.80;;;;;;5064322;27;87110;-61
2023/04/15 10:27:40;;;;;;;0.97;0.87;;;20.20;39.80;;;;;;5064170;27;87015;-61
2023/04/15 10:30:10;;;;;;;2.03;0.90;;;20.20;39.70;;;;;;5063531;27;89791;-61
2023/04/15 10:32:38;;;;;;;0.60;0.60;;;20.20;39.60;;;;;;5064003;27;89833;-62
2023/04/15 10:35:07;;;;;;;0.50;0.50;;;20.30;39.70;;;;;;5062047;27;87046;-62
2023/04/15 10:37:37;;;;;;;0.60;0.60;;;20.20;39.50;;;;;;5096810;27;86942;-61
2023/04/15 10:40:23;;;;;;;0.40;0.40;;;20.30;39.50;;;;;;5104999;27;89318;-61
2023/04/15 10:42:52;;;;;;;5.67;1.53;;;20.30;39.40;;;;;;5105271;27;88990;-62
2023/04/15 10:45:20;;;;;;;0.40;0.40;;;20.30;39.30;;;;;;5105087;27;86919;-61
2023/04/15 10:47:52;;;;;;;0.60;0.50;;;20.30;39.50;;;;;;5105065;27;86219;-61
2023/04/15 10:50:21;;;;;;;1.67;0.53;;;20.30;39.10;;;;;;5105010;27;89155;-61
2023/04/15 10:52:52;;;;;;;0.70;0.70;;;20.30;39.10;;;;;;5104824;27;91481;-62
2023/04/15 10:55:21;;;;;;;1.77;0.70;;;20.40;39.20;;;;;;5104902;27;88106;-61
2023/04/15 10:57:52;;;;;;;1.13;0.60;;;20.40;39.10;;;;;;5105342;27;86907;-62
2023/04/15 11:00:21;;;;;;;0.97;0.83;;;20.40;39.10;;;;;;5104890;27;88833;-61
2023/04/15 11:02:52;;;;;;;0.67;0.67;;;20.40;41.60;;;;;;5104980;27;88821;-62
2023/04/15 11:05:24;;;;;;;2.23;0.90;;;;;;;;;;5104685;27;86998;-61
2023/04/15 11:07:54;;;;;;;0.67;0.60;;;20.40;38.50;;;;;;5104756;27;86973;-61
2023/04/15 11:10:55;;;;;;;0.33;0.33;;;20.40;39.00;;;;;;5104251;27;89479;-61
2023/04/15 11:13:28;;;;;;;0.50;0.50;;;20.40;39.00;;;;;;5104568;27;88750;-61
2023/04/15 11:16:02;;;;;;;0.93;0.90;;;20.50;39.00;;;;;;5104670;27;86939;-62
2023/04/15 11:18:31;;;;;;;0.83;0.40;;;20.50;39.00;;;;;;5104435;27;87149;-61
2023/04/15 11:21:02;;;;;;;0.40;0.40;;;20.50;38.90;;;;;;5104447;27;90441;-62
2023/04/15 11:23:33;;;;;;;1.47;0.70;;;20.60;38.90;;;;;;5104406;27;89475;-61
2023/04/15 11:26:01;;;;;;;1.67;0.57;;;20.60;38.90;;;;;;5104947;27;86914;-61
2023/04/15 11:28:30;;;;;;;0.57;0.57;;;20.60;38.90;;;;;;5104324;27;86950;-61
2023/04/15 11:30:58;;;;;;;1.30;0.83;;;20.70;42.60;;;;;;5104178;27;88907;-62
2023/04/15 11:33:26;;;;;;;0.40;0.40;;;20.60;42.90;;;;;;5104931;27;88384;-61
2023/04/15 11:35:54;;;;;;;0.40;0.40;;;20.60;42.70;;;;;;5103700;27;87146;-61
2023/04/15 11:38:22;;;;;;;0.80;0.80;;;20.70;42.50;;;;;;5104432;27;86329;-61
2023/04/15 11:40:52;;;;;;;0.53;0.53;;;20.60;42.50;;;;;;5103568;27;88027;-61
2023/04/15 11:43:20;;;;;;;0.50;0.50;;;20.60;42.70;;;;;;5103737;27;88641;-61
2023/04/15 11:45:50;;;;;;;0.47;0.40;;;20.60;42.60;;;;;;5103200;27;88008;-61
2023/04/15 11:48:18;;;;;;;0.63;0.63;;;20.70;40.20;;;;;;5104052;27;88554;-62
2023/04/15 11:50:46;;;;;;;0.70;0.70;;;20.70;42.80;;;;;;5103964;27;89216;-61
2023/04/15 11:53:14;;;;;;;0.40;0.40;;;20.70;43.00;;;;;;5104069;27;88962;-62
2023/04/15 11:55:43;;;;;;;0.60;0.60;;;20.70;43.20;;;;;;5103992;27;86979;-62
2023/04/15 11:58:14;;;;;;;0.80;0.80;;;20.70;44.20;;;;;;5103563;27;86970;-62
2023/04/15 12:00:46;;;;;;;0.43;0.43;;;20.70;44.80;;;;;;5103043;27;89016;-61
2023/04/15 12:03:17;;;;;;;0.80;0.60;;;20.70;45.20;;;;;;5103916;27;87783;-62
2023/04/15 12:06:11;;;;;;;0.70;0.70;;;20.60;47.20;;;;;;5103885;27;86927;-62
2023/04/15 12:09:10;;;;;;;0.63;0.53;;;20.60;46.50;;;;;;5104012;27;87194;-62
2023/04/15 12:11:43;;;;;;;0.33;0.33;;;20.40;46.70;;;;;;5102505;27;89984;-62
2023/04/15 12:14:21;;;;;;;0.50;0.50;;;20.70;47.00;;;;;;5103203;27;89981;-62
2023/04/15 12:16:50;;;;;;;0.70;0.70;;;20.60;46.80;;;;;;5103703;27;87066;-61
2023/04/15 12:19:23;;;;;;;0.63;0.37;;;20.70;47.10;;;;;;5103792;27;87045;-61
2023/04/15 12:21:51;;;;;;;0.43;0.43;;;20.70;47.80;;;;;;5103346;27;88998;-62
2023/04/15 12:24:20;;;;;;;0.50;0.50;;;20.70;50.60;;;;;;5103714;27;88397;-62
2023/04/15 12:26:49;;;;;;;0.60;0.60;;;20.70;46.00;;;;;;5103724;27;86912;-61
2023/04/15 12:29:18;;;;;;;3.50;0.93;;;20.70;47.10;;;;;;5103880;27;86209;-62
2023/04/15 12:31:47;;;;;;;0.60;0.60;;;20.70;38.10;;;;;;5103220;27;89102;-61
2023/04/15 12:34:15;;;;;;;1.00;1.00;;;20.80;38.70;;;;;;5102998;27;89074;-61
2023/04/15 12:36:43;;;;;;;0.40;0.40;;;20.80;38.70;;;;;;5102692;27;87957;-62
2023/04/15 12:39:11;;;;;;;0.43;0.43;;;20.80;38.70;;;;;;5103064;27;87061;-61
2023/04/15 12:41:39;;;;;;;2.23;0.50;;;20.80;38.70;;;;;;5103287;27;88161;-61
2023/04/15 12:44:08;;;;;;;0.40;0.40;;;20.90;39.40;;;;;;5103292;27;88671;-61
2023/04/15 12:46:37;;;;;;;0.63;0.60;;;20.90;38.80;;;;;;5102894;27;86985;-61
2023/04/15 12:49:05;;;;;;;0.63;0.40;;;20.90;38.80;;;;;;5103157;27;87001;-61
2023/04/15 12:51:33;;;;;;;1.67;0.87;;;20.90;38.80;;;;;;5103087;27;89414;-61
2023/04/15 12:54:01;;;;;;;0.30;0.30;;;21.00;38.90;;;;;;5103563;27;88567;-61
2023/04/15 12:56:29;;;;;;;0.50;0.50;;;20.90;38.80;;;;;;5102997;27;87023;-61
2023/04/15 12:58:57;;;;;;;0.87;0.47;;;21.00;38.90;;;;;;5102546;27;87071;-61
2023/04/15 13:01:25;;;;;;;0.53;0.53;;;20.90;38.90;;;;;;5102860;27;90392;-61
2023/04/15 13:03:54;;;;;;;1.80;0.63;;;20.90;39.00;;;;;;5102862;27;90008;-61
2023/04/15 13:06:23;;;;;;;0.60;0.60;;;21.00;39.10;;;;;;5102347;27;87055;-61